Chandler Field Alexandria US
ICAO: KAXN
IATA: AXN
Category: Medium
Scheduled Services: No

Elevation: 1425 ft
TransAlt. 18000 ft.

Airport Communications:
ASOS:118.375
MINNEAPOLIS CNTR:126.1
PRINCETON RDO:122.6
CTAF/UNICOM:123

KAXN Zoom In..

If you have problems with the map follow the link
https://www.worldairports.se/pages/airport.php?
ICAO=KAXN

Runways:

(A) RW 04 length 4098 ft width 75 ft
---- / hdg 45

(B) RW 13 length 5099 ft width 100 ft
---- / hdg 135

(C) RW 22 length 4098 ft width 75 ft
---- / hdg 225

(D) RW 31 length 5099 ft width 100 ft
ILS 110.50 / hdg 315

Location; KAXN
Day. 18 / Time. 20.53 Zulu
* Altimeter: 30.25
* Temperature: -16° c. -3.2°f.
* Wind from: 010° Speed 09 kn.
Dewpoint: -23° c.
Visibility: 10 Statute Miles.
Clouds: Overcast 7000 ft.

KAXN 182053Z AUTO 01009KT 10SM OVC070 M16/M23 A3025 RMK AO2 SLP283 T11561233 55006


Wind From 010°
Speed 09 kn.

 
 
jpsmedia.com for Web Design worldairports.se 2019   terms of use